createdAt,value
2018-05-18T00:01:21.344Z,99.90
2018-05-18T00:03:47.598Z,99.90
2018-05-18T00:06:13.829Z,99.90
2018-05-18T00:08:40.138Z,99.90
2018-05-18T00:11:06.375Z,99.90
2018-05-18T00:13:33.043Z,99.90
2018-05-18T00:15:59.769Z,99.90
2018-05-18T00:18:26.859Z,99.90
2018-05-18T00:20:54.288Z,99.90
2018-05-18T00:23:20.533Z,99.90
2018-05-18T00:25:47.160Z,99.90
2018-05-18T00:28:13.948Z,99.90
2018-05-18T00:30:41.521Z,99.90
2018-05-18T00:33:08.492Z,99.90
2018-05-18T00:35:34.704Z,99.90
2018-05-18T00:38:01.694Z,99.90
2018-05-18T00:40:27.938Z,99.90
2018-05-18T00:42:54.237Z,99.90
2018-05-18T00:45:20.487Z,99.90
2018-05-18T00:47:47.062Z,99.90
2018-05-18T00:50:13.576Z,99.90
2018-05-18T00:52:39.796Z,99.90
2018-05-18T00:55:18.426Z,99.90
2018-05-18T00:57:45.037Z,99.90
2018-05-18T01:00:12.009Z,99.90
2018-05-18T01:02:38.683Z,99.90
2018-05-18T01:05:04.904Z,99.90
2018-05-18T01:07:31.784Z,99.90
2018-05-18T01:09:58.661Z,99.90
2018-05-18T01:12:25.628Z,99.90
2018-05-18T01:14:52.871Z,99.90
2018-05-18T01:17:20.168Z,99.90
2018-05-18T01:19:46.400Z,99.90
2018-05-18T01:22:12.640Z,99.90
2018-05-18T01:24:39.557Z,99.90
2018-05-18T01:27:06.388Z,99.90
2018-05-18T01:29:33.363Z,99.90
2018-05-18T01:32:00.965Z,99.90
2018-05-18T01:34:27.212Z,99.90
2018-05-18T01:36:53.451Z,99.90
2018-05-18T01:39:19.697Z,99.90
2018-05-18T01:41:45.914Z,99.90
2018-05-18T01:44:12.605Z,99.90
2018-05-18T01:46:39.534Z,99.90
2018-05-18T01:49:07.125Z,99.90
2018-05-18T01:51:33.344Z,99.90
2018-05-18T01:54:00.301Z,99.90
2018-05-18T01:56:26.992Z,99.90
2018-05-18T01:58:53.208Z,99.90
2018-05-18T02:01:19.440Z,99.90
2018-05-18T02:03:46.288Z,99.90
2018-05-18T02:06:12.507Z,99.90
2018-05-18T02:08:39.229Z,99.90
2018-05-18T02:11:06.208Z,99.90
2018-05-18T02:13:32.961Z,99.90
2018-05-18T02:15:59.512Z,99.90
2018-05-18T02:18:25.730Z,99.90
2018-05-18T02:20:52.400Z,99.90
2018-05-18T02:23:18.648Z,99.90
2018-05-18T02:25:45.416Z,99.90
2018-05-18T02:28:12.366Z,99.90
2018-05-18T02:30:39.841Z,99.90
2018-05-18T02:33:06.792Z,99.90
2018-05-18T02:35:33.765Z,99.90
2018-05-18T02:38:00.001Z,99.90
2018-05-18T02:40:26.223Z,99.90
2018-05-18T02:42:53.112Z,99.90
2018-05-18T02:45:19.909Z,99.90
2018-05-18T02:47:47.535Z,99.90
2018-05-18T02:50:14.317Z,99.90
2018-05-18T02:52:41.269Z,99.90
2018-05-18T02:55:08.221Z,99.90
2018-05-18T02:57:34.957Z,99.90
2018-05-18T03:00:02.300Z,99.90
2018-05-18T03:02:28.517Z,99.90
2018-05-18T03:04:54.749Z,99.90
2018-05-18T03:07:21.464Z,99.90
2018-05-18T03:09:48.083Z,99.90
2018-05-18T03:12:15.493Z,99.90
2018-05-18T03:14:42.288Z,99.90
2018-05-18T03:17:09.271Z,99.90
2018-05-18T03:19:35.983Z,99.90
2018-05-18T03:22:02.967Z,99.90
2018-05-18T03:24:30.197Z,99.90
2018-05-18T03:26:56.444Z,99.90
2018-05-18T03:29:22.656Z,99.90
2018-05-18T03:31:50.120Z,99.90
2018-05-18T03:34:17.106Z,99.90
2018-05-18T03:36:43.336Z,99.90
2018-05-18T03:39:10.016Z,99.90
2018-05-18T03:41:36.235Z,99.90
2018-05-18T03:44:03.567Z,99.90
2018-05-18T03:46:30.707Z,99.90
2018-05-18T03:48:58.952Z,99.90
2018-05-18T03:51:25.468Z,99.90
2018-05-18T03:53:52.312Z,99.90
2018-05-18T03:56:19.426Z,99.90
2018-05-18T03:58:47.022Z,99.90
2018-05-18T04:01:25.629Z,99.90
2018-05-18T04:04:04.932Z,99.90
2018-05-18T04:06:44.180Z,99.90
2018-05-18T04:09:11.624Z,99.90
2018-05-18T04:11:38.594Z,99.90
2018-05-18T04:14:04.808Z,99.90
2018-05-18T04:16:32.448Z,99.90
2018-05-18T04:18:58.686Z,99.90
2018-05-18T04:21:24.904Z,99.90
2018-05-18T04:23:51.532Z,99.90
2018-05-18T04:26:18.437Z,99.90
2018-05-18T04:28:45.397Z,99.90
2018-05-18T04:31:12.804Z,99.90
2018-05-18T04:33:39.026Z,99.90
2018-05-18T04:36:05.235Z,99.90
2018-05-18T04:38:31.900Z,99.90
2018-05-18T04:40:58.739Z,99.90
2018-05-18T04:43:24.956Z,99.90
2018-05-18T04:45:53.632Z,99.90
2018-05-18T04:48:20.928Z,99.90
2018-05-18T04:50:47.580Z,99.90
2018-05-18T04:53:14.219Z,99.90
2018-05-18T04:55:40.444Z,99.90
2018-05-18T04:58:07.182Z,99.90
2018-05-18T05:00:33.912Z,99.90
2018-05-18T05:03:00.857Z,99.90
2018-05-18T05:05:27.882Z,99.90
2018-05-18T05:07:54.859Z,99.90
2018-05-18T05:10:21.818Z,99.90
2018-05-18T05:12:48.968Z,99.90
2018-05-18T05:15:16.384Z,99.90
2018-05-18T05:17:42.624Z,99.90
2018-05-18T05:20:08.845Z,99.90
2018-05-18T05:22:35.136Z,99.90
2018-05-18T05:25:02.136Z,99.90
2018-05-18T05:27:28.441Z,99.90
2018-05-18T05:29:55.464Z,99.90
2018-05-18T05:32:23.336Z,99.90
2018-05-18T05:34:50.909Z,99.90
2018-05-18T05:37:18.465Z,99.90
2018-05-18T05:39:45.437Z,99.90
2018-05-18T05:42:11.656Z,99.90
2018-05-18T05:44:39.177Z,99.90
2018-05-18T05:47:06.064Z,99.90
2018-05-18T05:49:33.365Z,99.90
2018-05-18T05:51:59.582Z,99.90
2018-05-18T05:54:25.792Z,99.90
2018-05-18T05:56:53.256Z,99.90
2018-05-18T05:59:20.589Z,99.90
2018-05-18T06:01:46.809Z,99.90
2018-05-18T06:04:13.439Z,99.90
2018-05-18T06:06:39.661Z,99.90
2018-05-18T06:09:05.872Z,99.90
2018-05-18T06:11:32.408Z,99.90
2018-05-18T06:13:58.632Z,99.90
2018-05-18T06:16:25.962Z,99.90
2018-05-18T06:18:52.195Z,99.90
2018-05-18T06:21:18.435Z,99.90
2018-05-18T06:23:44.683Z,99.90
2018-05-18T06:26:12.264Z,99.90
2018-05-18T06:28:39.267Z,99.90
2018-05-18T06:31:06.144Z,99.90
2018-05-18T06:33:32.976Z,98.40
2018-05-18T06:35:59.541Z,98.70
2018-05-18T06:38:26.498Z,97.40
2018-05-18T06:40:53.453Z,98.50
2018-05-18T06:43:20.448Z,97.80
2018-05-18T06:45:47.205Z,97.90
2018-05-18T06:48:13.830Z,98.20
2018-05-18T06:50:40.597Z,98.90
2018-05-18T06:53:07.377Z,99.90
2018-05-18T06:55:35.058Z,98.80
2018-05-18T06:58:02.492Z,99.90
2018-05-18T07:00:28.704Z,99.90
2018-05-18T07:02:55.230Z,99.90
2018-05-18T07:05:21.444Z,98.40
2018-05-18T07:07:47.674Z,99.00
2018-05-18T07:10:14.433Z,99.60
2018-05-18T07:12:40.659Z,99.40
2018-05-18T07:15:07.595Z,98.50
2018-05-18T07:17:33.810Z,99.30
2018-05-18T07:20:00.762Z,99.90
2018-05-18T07:22:27.776Z,99.50
2018-05-18T07:24:53.984Z,99.60
2018-05-18T07:27:21.289Z,99.90
2018-05-18T07:29:48.578Z,99.90
2018-05-18T07:32:15.931Z,99.90
2018-05-18T07:34:43.225Z,98.80
2018-05-18T07:37:09.444Z,98.70
2018-05-18T07:39:35.653Z,98.80
2018-05-18T07:42:02.652Z,95.60
2018-05-18T07:44:28.877Z,95.40
2018-05-18T07:46:55.625Z,98.00
2018-05-18T07:49:22.169Z,96.50
2018-05-18T07:51:49.208Z,95.00
2018-05-18T07:54:15.861Z,93.40
2018-05-18T07:56:42.773Z,95.10
2018-05-18T07:59:10.541Z,95.10
2018-05-18T08:01:37.504Z,90.30
2018-05-18T08:04:04.516Z,91.10
2018-05-18T08:06:32.690Z,89.50
2018-05-18T08:08:58.892Z,89.00
2018-05-18T08:11:25.101Z,92.10
2018-05-18T08:13:52.089Z,90.00
2018-05-18T08:16:18.940Z,89.90
2018-05-18T08:18:45.644Z,83.70
2018-05-18T08:21:13.133Z,84.60
2018-05-18T08:23:40.334Z,84.50
2018-05-18T08:26:06.572Z,86.30
2018-05-18T08:28:46.440Z,84.30
2018-05-18T08:31:13.948Z,80.10
2018-05-18T08:33:40.160Z,79.80
2018-05-18T08:36:06.408Z,84.50
2018-05-18T08:38:32.677Z,83.20
2018-05-18T08:40:58.896Z,82.20
2018-05-18T08:43:25.224Z,84.40
2018-05-18T08:45:52.320Z,83.80
2018-05-18T08:48:19.792Z,80.90
2018-05-18T08:50:47.361Z,80.00
2018-05-18T08:53:14.317Z,79.20
2018-05-18T08:55:40.551Z,79.10
2018-05-18T08:58:07.456Z,77.00
2018-05-18T09:00:33.703Z,76.30
2018-05-18T09:03:00.672Z,77.10
2018-05-18T09:05:28.077Z,77.00
2018-05-18T09:07:54.304Z,77.00
2018-05-18T09:10:20.545Z,76.10
2018-05-18T09:12:47.248Z,76.90
2018-05-18T09:15:14.805Z,80.60
2018-05-18T09:17:41.786Z,80.10
2018-05-18T09:20:08.021Z,80.00
2018-05-18T09:22:34.803Z,78.90
2018-05-18T09:25:01.699Z,75.90
2018-05-18T09:27:28.672Z,76.60
2018-05-18T09:29:55.384Z,76.70
2018-05-18T09:32:22.341Z,75.70
2018-05-18T09:34:49.337Z,75.40
2018-05-18T09:37:15.574Z,74.80
2018-05-18T09:39:41.839Z,73.40
2018-05-18T09:42:08.121Z,76.70
2018-05-18T09:44:35.817Z,75.90
2018-05-18T09:47:02.649Z,69.90
2018-05-18T09:49:29.562Z,69.50
2018-05-18T09:51:57.224Z,67.50
2018-05-18T09:54:24.776Z,69.60
2018-05-18T09:56:51.437Z,69.10
2018-05-18T09:59:18.413Z,68.80
2018-05-18T10:01:44.960Z,68.90
2018-05-18T10:04:11.609Z,69.60
2018-05-18T10:06:37.848Z,67.50
2018-05-18T10:09:07.115Z,67.80
2018-05-18T10:11:34.569Z,67.00
2018-05-18T10:14:01.532Z,67.20
2018-05-18T10:16:28.372Z,67.30
2018-05-18T10:18:55.389Z,67.80
2018-05-18T10:21:21.623Z,66.90
2018-05-18T10:23:48.225Z,66.20
2018-05-18T10:26:14.904Z,65.40
2018-05-18T10:28:41.128Z,63.20
2018-05-18T10:31:07.347Z,65.50
2018-05-18T10:33:33.588Z,63.50
2018-05-18T10:35:59.804Z,66.50
2018-05-18T10:38:26.110Z,64.50
2018-05-18T10:40:53.100Z,64.30
2018-05-18T10:43:19.913Z,64.20
2018-05-18T10:45:46.876Z,60.40
2018-05-18T10:48:13.616Z,60.00
2018-05-18T10:50:40.351Z,63.90
2018-05-18T10:53:07.837Z,61.80
2018-05-18T10:55:33.999Z,61.80
2018-05-18T10:58:00.694Z,61.80
2018-05-18T11:00:28.357Z,60.50
2018-05-18T11:02:55.924Z,60.90
2018-05-18T11:05:23.373Z,58.90
2018-05-18T11:07:49.578Z,58.60
2018-05-18T11:10:15.804Z,60.20
2018-05-18T11:12:42.075Z,57.60
2018-05-18T11:15:10.041Z,62.60
2018-05-18T11:17:37.020Z,58.60
2018-05-18T11:20:04.135Z,58.40
2018-05-18T11:22:30.362Z,58.20
2018-05-18T11:24:56.982Z,58.00
2018-05-18T11:27:23.228Z,57.30
2018-05-18T11:29:49.423Z,55.70
2018-05-18T11:32:15.689Z,56.10
2018-05-18T11:34:41.897Z,55.10
2018-05-18T11:37:08.197Z,57.50
2018-05-18T11:39:35.213Z,55.60
2018-05-18T11:42:01.877Z,54.60
2018-05-18T11:44:28.531Z,54.40
2018-05-18T11:46:55.144Z,52.30
2018-05-18T11:49:22.045Z,51.20
2018-05-18T11:51:49.612Z,54.40
2018-05-18T11:54:16.572Z,54.20
2018-05-18T11:56:44.240Z,53.90
2018-05-18T11:59:11.195Z,53.10
2018-05-18T12:01:37.424Z,52.90
2018-05-18T12:04:04.413Z,53.40
2018-05-18T12:06:30.640Z,53.10
2018-05-18T12:08:56.944Z,48.40
2018-05-18T12:11:23.922Z,50.60
2018-05-18T12:13:50.169Z,50.60
2018-05-18T12:16:16.734Z,50.20
2018-05-18T12:18:43.350Z,50.40
2018-05-18T12:21:10.184Z,51.60
2018-05-18T12:23:51.360Z,49.60
2018-05-18T12:26:17.597Z,50.00
2018-05-18T12:28:43.824Z,49.30
2018-05-18T12:31:10.133Z,50.80
2018-05-18T12:33:37.709Z,50.10
2018-05-18T12:36:03.943Z,50.30
2018-05-18T12:38:31.706Z,50.40
2018-05-18T12:40:58.747Z,49.10
2018-05-18T12:43:26.192Z,50.80
2018-05-18T12:45:52.840Z,50.90
2018-05-18T12:48:19.635Z,47.70
2018-05-18T12:50:46.196Z,50.10
2018-05-18T12:53:13.155Z,48.70
2018-05-18T12:55:40.157Z,49.30
2018-05-18T12:58:07.821Z,47.40
2018-05-18T13:00:34.804Z,48.30
2018-05-18T13:03:01.043Z,48.20
2018-05-18T13:05:27.328Z,47.90
2018-05-18T13:07:54.320Z,47.60
2018-05-18T13:10:20.637Z,48.10
2018-05-18T13:12:46.886Z,47.80
2018-05-18T13:15:13.896Z,46.20
2018-05-18T13:17:41.477Z,46.00
2018-05-18T13:20:08.940Z,45.80
2018-05-18T13:22:35.896Z,45.30
2018-05-18T13:25:02.911Z,47.10
2018-05-18T13:27:29.193Z,47.10
2018-05-18T13:29:55.449Z,46.20
2018-05-18T13:32:22.161Z,45.40
2018-05-18T13:34:49.237Z,45.40
2018-05-18T13:37:15.921Z,45.40
2018-05-18T13:39:42.864Z,44.30
2018-05-18T13:42:09.566Z,44.70
2018-05-18T13:44:35.784Z,44.70
2018-05-18T13:47:03.356Z,44.20
2018-05-18T13:49:30.605Z,44.10
2018-05-18T13:51:58.112Z,43.30
2018-05-18T13:54:24.369Z,43.30
2018-05-18T13:56:51.158Z,42.50
2018-05-18T13:59:17.393Z,40.00
2018-05-18T14:01:43.638Z,40.10
2018-05-18T14:04:10.277Z,38.10
2018-05-18T14:06:36.501Z,37.60
2018-05-18T14:09:08.415Z,37.10
2018-05-18T14:11:34.653Z,36.90
2018-05-18T14:14:01.449Z,36.10
2018-05-18T14:16:29.213Z,35.80
2018-05-18T14:18:56.192Z,37.10
2018-05-18T14:21:22.408Z,36.90
2018-05-18T14:23:48.663Z,36.80
2018-05-18T14:26:14.919Z,34.20
2018-05-18T14:28:41.815Z,36.70
2018-05-18T14:31:08.792Z,41.80
2018-05-18T14:33:35.024Z,41.80
2018-05-18T14:36:01.270Z,44.10
2018-05-18T14:38:28.270Z,48.20
2018-05-18T14:40:55.144Z,49.70
2018-05-18T14:43:21.750Z,48.30
2018-05-18T14:45:47.973Z,50.30
2018-05-18T14:48:14.656Z,49.10
2018-05-18T14:50:41.946Z,47.60
2018-05-18T14:53:08.197Z,47.60
2018-05-18T14:55:34.416Z,45.30
2018-05-18T14:58:01.241Z,45.40
2018-05-18T15:00:27.984Z,42.90
2018-05-18T15:02:54.205Z,41.80
2018-05-18T15:05:21.168Z,45.80
2018-05-18T15:07:47.432Z,45.80
2018-05-18T15:10:13.665Z,50.00
2018-05-18T15:12:40.998Z,50.10
2018-05-18T15:15:07.824Z,53.70
2018-05-18T15:17:35.397Z,56.40
2018-05-18T15:20:02.798Z,61.10
2018-05-18T15:22:29.024Z,61.20
2018-05-18T15:24:55.617Z,62.90
2018-05-18T15:27:22.588Z,65.40
2018-05-18T15:29:49.551Z,61.40
2018-05-18T15:32:16.268Z,61.50
2018-05-18T15:34:43.167Z,61.70
2018-05-18T15:37:09.997Z,65.90
2018-05-18T15:39:36.208Z,67.60
2018-05-18T15:42:03.881Z,68.30
2018-05-18T15:44:30.116Z,68.10
2018-05-18T15:46:58.564Z,70.80
2018-05-18T15:49:25.295Z,70.60
2018-05-18T15:51:52.208Z,75.80
2018-05-18T15:54:18.943Z,76.10
2018-05-18T15:56:46.363Z,72.80
2018-05-18T15:59:12.594Z,73.20
2018-05-18T16:01:39.216Z,74.20
2018-05-18T16:04:05.506Z,74.90
2018-05-18T16:06:32.796Z,76.60
2018-05-18T16:08:59.460Z,77.20
2018-05-18T16:11:26.133Z,75.50
2018-05-18T16:13:52.372Z,78.00
2018-05-18T16:16:19.630Z,76.20
2018-05-18T16:18:46.252Z,76.30
2018-05-18T16:21:13.050Z,77.10
2018-05-18T16:23:40.017Z,79.40
2018-05-18T16:26:06.277Z,78.80
2018-05-18T16:28:32.910Z,78.00
2018-05-18T16:30:59.675Z,78.60
2018-05-18T16:33:26.347Z,80.20
2018-05-18T16:35:53.813Z,81.20
2018-05-18T16:38:21.533Z,80.40
2018-05-18T16:40:47.772Z,79.80
2018-05-18T16:43:13.996Z,80.20
2018-05-18T16:45:40.654Z,80.90
2018-05-18T16:48:07.460Z,80.00
2018-05-18T16:50:34.296Z,79.00
2018-05-18T16:53:01.270Z,79.60
2018-05-18T16:55:27.509Z,79.70
2018-05-18T16:57:54.143Z,80.90
2018-05-18T17:00:20.402Z,79.20
2018-05-18T17:02:46.648Z,79.30
2018-05-18T17:05:12.909Z,80.00
2018-05-18T17:07:39.546Z,80.90
2018-05-18T17:10:06.407Z,79.20
2018-05-18T17:12:33.194Z,77.90
2018-05-18T17:14:59.350Z,79.90
2018-05-18T17:17:27.067Z,77.80
2018-05-18T17:19:54.774Z,76.60
2018-05-18T17:22:20.997Z,77.20
2018-05-18T17:24:47.222Z,77.40
2018-05-18T17:27:13.462Z,78.40
2018-05-18T17:29:40.214Z,79.70
2018-05-18T17:32:07.033Z,78.30
2018-05-18T17:34:34.040Z,79.10
2018-05-18T17:37:00.666Z,79.20
2018-05-18T17:39:26.910Z,83.00
2018-05-18T17:41:53.919Z,81.10
2018-05-18T17:44:20.994Z,87.30
2018-05-18T17:46:47.642Z,87.40
2018-05-18T17:49:14.397Z,82.40
2018-05-18T17:51:41.030Z,80.30
2018-05-18T17:54:07.348Z,82.70
2018-05-18T17:56:34.144Z,85.70
2018-05-18T17:59:00.418Z,87.50
2018-05-18T18:01:27.573Z,85.90
2018-05-18T18:03:54.336Z,85.80
2018-05-18T18:06:21.299Z,85.50
2018-05-18T18:08:47.584Z,85.70
2018-05-18T18:11:14.360Z,86.10
2018-05-18T18:13:41.349Z,86.60
2018-05-18T18:16:08.079Z,87.00
2018-05-18T18:18:34.333Z,86.80
2018-05-18T18:21:00.550Z,86.10
2018-05-18T18:23:27.182Z,85.10
2018-05-18T18:25:53.405Z,85.00
2018-05-18T18:28:20.361Z,85.50
2018-05-18T18:30:46.979Z,86.20
2018-05-18T18:33:14.449Z,88.30
2018-05-18T18:35:41.428Z,86.90
2018-05-18T18:38:08.194Z,86.90
2018-05-18T18:40:34.945Z,86.70
2018-05-18T18:43:01.204Z,89.80
2018-05-18T18:45:28.080Z,90.20
2018-05-18T18:47:55.741Z,87.40
2018-05-18T18:50:23.331Z,90.80
2018-05-18T18:52:50.064Z,91.40
2018-05-18T18:55:16.305Z,92.10
2018-05-18T18:57:43.010Z,92.70
2018-05-18T19:00:10.939Z,88.80
2018-05-18T19:02:38.106Z,88.90
2018-05-18T19:05:06.044Z,90.60
2018-05-18T19:07:32.736Z,89.70
2018-05-18T19:09:58.972Z,88.30
2018-05-18T19:12:25.366Z,86.90
2018-05-18T19:14:51.720Z,86.00
2018-05-18T19:17:18.287Z,85.40
2018-05-18T19:19:44.566Z,85.20
2018-05-18T19:22:11.560Z,84.90
2018-05-18T19:24:38.420Z,85.00
2018-05-18T19:27:04.697Z,84.80
2018-05-18T19:29:31.668Z,84.70
2018-05-18T19:31:58.428Z,84.70
2018-05-18T19:34:24.730Z,84.10
2018-05-18T19:36:51.708Z,83.50
2018-05-18T19:39:18.563Z,83.50
2018-05-18T19:41:44.904Z,82.10
2018-05-18T19:44:11.353Z,82.40
2018-05-18T19:46:38.085Z,81.70
2018-05-18T19:49:04.809Z,81.20
2018-05-18T19:51:31.061Z,81.40
2018-05-18T19:53:57.757Z,81.80
2018-05-18T19:56:24.630Z,81.90
2018-05-18T19:58:51.917Z,82.80
2018-05-18T20:01:18.666Z,82.90
2018-05-18T20:03:45.302Z,83.50
2018-05-18T20:06:12.017Z,83.40
2018-05-18T20:08:39.000Z,84.40
2018-05-18T20:11:05.259Z,84.30
2018-05-18T20:13:31.530Z,84.40
2018-05-18T20:15:59.104Z,87.00
2018-05-18T20:18:26.190Z,85.90
2018-05-18T20:20:52.435Z,85.90
2018-05-18T20:23:19.046Z,86.80
2018-05-18T20:25:45.291Z,85.90
2018-05-18T20:28:12.253Z,86.20
2018-05-18T20:30:38.488Z,85.80
2018-05-18T20:33:04.740Z,86.00
2018-05-18T20:35:31.445Z,85.00
2018-05-18T20:37:57.680Z,84.40
2018-05-18T20:40:23.906Z,85.80
2018-05-18T20:42:51.576Z,86.70
2018-05-18T20:45:18.294Z,86.90
2018-05-18T20:47:45.848Z,86.30
2018-05-18T20:50:12.615Z,86.80
2018-05-18T20:52:40.552Z,88.10
2018-05-18T20:55:07.209Z,87.90
2018-05-18T20:57:33.996Z,90.60
2018-05-18T21:00:01.458Z,90.40
2018-05-18T21:02:28.440Z,90.00
2018-05-18T21:04:55.090Z,89.60
2018-05-18T21:07:21.303Z,88.40
2018-05-18T21:09:47.533Z,90.50
2018-05-18T21:12:13.784Z,90.20
2018-05-18T21:14:40.006Z,90.00
2018-05-18T21:17:06.708Z,91.70
2018-05-18T21:19:33.685Z,90.40
2018-05-18T21:22:01.180Z,92.20
2018-05-18T21:24:27.416Z,92.30
2018-05-18T21:26:54.643Z,90.00
2018-05-18T21:29:20.914Z,89.20
2018-05-18T21:31:47.132Z,90.50
2018-05-18T21:34:13.813Z,90.80
2018-05-18T21:36:40.248Z,90.80
2018-05-18T21:39:06.469Z,92.40
2018-05-18T21:41:33.107Z,93.50
2018-05-18T21:43:59.324Z,93.00
2018-05-18T21:46:26.144Z,94.90
2018-05-18T21:48:53.421Z,93.80
2018-05-18T21:51:20.184Z,94.00
2018-05-18T21:53:47.213Z,93.20
2018-05-18T21:56:13.440Z,93.50
2018-05-18T21:58:40.823Z,94.20
2018-05-18T22:01:07.016Z,94.30
2018-05-18T22:03:34.445Z,94.20
2018-05-18T22:06:00.670Z,93.90
2018-05-18T22:08:26.882Z,92.30
2018-05-18T22:10:53.131Z,93.40
2018-05-18T22:13:19.340Z,94.50
2018-05-18T22:15:45.659Z,93.70
2018-05-18T22:18:13.431Z,92.70
2018-05-18T22:20:40.406Z,94.50
2018-05-18T22:23:06.628Z,94.60
2018-05-18T22:25:33.254Z,96.30
2018-05-18T22:28:00.218Z,96.40
2018-05-18T22:30:27.092Z,96.70
2018-05-18T22:32:54.005Z,97.30
2018-05-18T22:35:20.951Z,93.30
2018-05-18T22:37:47.910Z,94.90
2018-05-18T22:40:14.900Z,96.30
2018-05-18T22:42:41.138Z,96.30
2018-05-18T22:45:07.810Z,93.80
2018-05-18T22:47:35.400Z,95.30
2018-05-18T22:50:02.856Z,93.60
2018-05-18T22:52:30.528Z,92.50
2018-05-18T22:54:57.836Z,92.90
2018-05-18T22:57:24.632Z,92.80
2018-05-18T22:59:50.871Z,94.20
2018-05-18T23:02:17.834Z,96.80
2018-05-18T23:04:44.601Z,96.90
2018-05-18T23:07:10.827Z,96.10
2018-05-18T23:09:37.049Z,93.90
2018-05-18T23:12:03.304Z,93.90
2018-05-18T23:14:29.520Z,94.50
2018-05-18T23:16:56.349Z,95.90
2018-05-18T23:19:23.333Z,95.50
2018-05-18T23:21:50.164Z,95.90
2018-05-18T23:24:16.706Z,95.40
2018-05-18T23:26:42.920Z,96.90
2018-05-18T23:29:10.606Z,98.40
2018-05-18T23:31:36.822Z,98.50
2018-05-18T23:34:03.798Z,98.20
2018-05-18T23:36:30.036Z,98.10
2018-05-18T23:38:56.274Z,97.10
2018-05-18T23:41:22.564Z,98.10
2018-05-18T23:43:48.799Z,97.60
2018-05-18T23:46:15.621Z,98.10
2018-05-18T23:48:42.471Z,96.40
2018-05-18T23:51:09.085Z,96.50
2018-05-18T23:53:35.877Z,97.50
2018-05-18T23:56:02.498Z,98.70
2018-05-18T23:58:29.316Z,98.90
